Racecast

Cedar Reilly

Southern Connecticut (CT) · Fr · LCACFL D3ADistrict 113A · Compare head to head

Athlete rating 105.1 2026 TF season
Best race 128.1 XC
Races 97
Seasons 7 2020 — 2026

RankedNation #9206·NORTHEAST-10 #279·CT #78·Team #21 ?

Rating scale ?

Cross Country

2024 XC 113.2

Fort Myers (FL) · Grade 12

Date Meet Event Result Place Rating Difficulty PR/SR Flags
2024-11-16 Apalachee Regional Park 5000m 22:33.5 168th · 7th on team 114.5 -0.004 CSR
2024-11-07 Buckingham Community Park 5000m 23:12.7 34th · 5th on team 115.3 +0.033 CSR RSR
2024-10-31 Veterans Park 5000m 23:48.4 31st · 7th on team 114.4 +0.042 ★CR CSR
2024-10-25 BOBCAT TRAIL 5000m 22:19.8 54th · 5th on team 115.0 -0.012 ★CR SR CSR RSR
2024-10-22 Veterans Park 5000m 25:03.5 17th · 7th on team 109.0 +0.042 CR CSR
2024-09-21 KING's XC Course 5000m 24:02.4 16th · 6th on team 110.8 +0.009 ★CR SR CSR
2024-09-07 Estero Community Park 5005m 25:09 88th · 5th on team 113.1 +0.067 ★PR ★CR SR CSR RSR

2023 XC 117.4

Fort Myers (FL) · Grade 11

Date Meet Event Result Place Rating Difficulty PR/SR Flags
2023-11-17 Apalachee Regional Park 5000m 22:17.3 144th · 5th on team 115.9 -0.004 ★CR CSR
2023-11-09 Buckingham Community Park 5000m 21:51.1 40th · 5th on team 123.6 +0.033 ★PR ★CR SR CSR RSR
2023-11-01 Palmetto High School 5000m 22:07.8 37th · 5th on team 121.1 +0.029 ★CR CSR RSR
2023-10-19 Ida S. Baker High School 5000m 22:25.6 14th · 5th on team 117.9 +0.016 ★CR CSR
2023-10-06 Holloway Park 5000m 23:44.3 172nd · 7th on team 115.5 +0.039 CSR
2023-09-29 Apalachee Regional Park 5000m 22:57.4 146th · 3rd on team 115.7 -0.004 CR CSR
2023-09-22 North Port XC Course 5000m 21:51.3 121st · 5th on team 118.7 -0.008 PR ★CR SR CSR RSR
2023-09-15 Premier Sports Complex 5000m 24:16.3 50th · 8th on team 114.3 +0.058 ★CR CSR RSR
2023-09-09 Kelly Road Park 5000m 23:49.9 51st · 5th on team 114.1 ★CR SR CSR RSR

2022 XC 112.7

Fort Myers (FL) · Grade 10

Date Meet Event Result Place Rating Difficulty PR/SR Flags
2022-10-20 Highlands County Sports Complex 5000m 23:26.2 70th · 10th on team 110.3 -0.009 ★CR CSR
2022-09-24 Southwest Florida Christian Academy 5000m 23:27.9 35th · 4th on team 116.0 +0.041 ★CR CSR RSR
2022-09-16 Bobcat XC Course 5000m 22:41.9 33rd · 7th on team 115.1 -0.006 ★CR SR CSR
2022-09-10 Kelly Road Soccer Complex 5000m 25:05.8 8th · 3rd on team 108.2 +0.039 CSR
2022-09-03 Estero Community Park 5000m 24:39.6 51st · 4th on team 113.6 +0.067 ★CR CSR
2022-08-27 Lemon Bay High School 5000m 23:24.3 37th · 5th on team 115.5 +0.048 ★CR SR CSR RSR
2022-08-20 Buckingham Community Park 5000m 24:33.5 79th · 7th on team 109.8 +0.033 SR CSR RSR

2021 XC 115.2

Fort Myers (FL) · Grade 9

Date Meet Event Result Place Rating Difficulty PR/SR Flags
2021-11-03 Buckingham Community Park 5000m 22:50.5 51st · 5th on team 119.0 +0.033 CR CSR
2021-10-28 Estero Community Park 5000m 25:07.5 44th · 9th on team 111.9 +0.067 CR CSR
2021-10-23 Mariner High School 5000m 22:00.3 13th · 6th on team 123.1 +0.028 PR ★CR SR CSR RSR
2021-10-16 Apalachee Regional Park 5000m 23:23.7 58th · 2nd on team 111.8 -0.004 CR CSR
2021-10-02 Holloway Park 5000m 22:55.2 155th · 5th on team 119.0 +0.039 ★CR CSR
2021-09-11 Kelly Road Soccer Complex 5000m 22:45.3 71st · 8th on team 120.5 +0.039 PR ★CR SR CSR RSR
2021-09-04 Estero Community Park 5000m 25:12.8 10th · 3rd on team 112.0 +0.067 CR CSR RSR
2021-08-28 Lemon Bay High School 5000m 24:59.5 4th · 2nd on team 110.3 +0.048 CR CSR RSR
2021-08-21 Buckingham Community Park 5000m 24:52.5 9th · 7th on team 109.6 +0.033 PR CR SR CSR RSR

2020 XC 125.0

Three Oaks (TN) · Grade 8

Date Meet Event Result Place Rating Difficulty PR/SR Flags
2020-11-01 Lee County Sport Complex 3000m 13:20.4 13th · 2nd on team 128.1 -0.020 ★PR ★CR ★R SR CSR RSR
2020-10-19 Wa-Ke Hatchee Park 3000m 14:10 5th · 2nd on team 122.0 -0.014 PR ★CR R SR CSR RSR

Track & Field

2026 TF 104.7

Southern Connecticut (CT) · Grade Fr

Date Meet Event Result Place Rating Difficulty PR/SR Flags
2026-05-01 Northeast-10 Outdoor Championships 800m 2:28.74 16th · 5th on team 105.1 -0.041
2026-05-01 NE10 Outdoor 800m 2:28.74 16th · 5th on team 105.1 -0.041
2026-04-18 Mark Young Invitational 800m 2:30.44 10th · 2nd on team 104.2 -0.038
2026-04-10 Wilton Wright Invitational 800m 2:26.6 2nd · 1st on team 106.6 -0.041 ★PR SR RSR
2026-04-04 UCONN Dog Fight 800m 2:31.08 30th · 2nd on team 104.8 -0.029
2026-02-06 Riverhawk Invitational 800m 2:28.52 39th · 2nd on team 104.8 -0.048 PR SR RSR
2026-01-30 Harvard Invitational 800m 2:30.69 29th · 1st on team 103.8 -0.040
2026-01-24 SCSU Sutherland Inv. 800m 2:32.63 4th · 1st on team 103.2 -0.046
2025-12-12 Art Kadish Elm City Challenge 800m 2:30.64 1st · 1st on team 104.7 -0.046 PR SR RSR

2025 TF 104.7

Fort Myers (FL) · Grade 12

Date Meet Event Result Place Rating Difficulty PR/SR Flags
2025-05-02 FHSAA 3A Region 3 400m 1:01.9 13th · 1st on team -0.048 ★PR SR
2025-04-17 Meet results → Women's Long Jump 4.63m
2025-04-17 Meet results → Women's 400 Meters 1:00.69 5th · 2nd on team ★PR SR
2025-04-09 Meet results → Women's Long Jump 3.90m
2025-04-09 Meet results → Women's 400 Meters 1:03.35 10th · 1st on team
2025-04-03 Meet results → Women's 400 Meters 1:01.78 5th · 1st on team
2025-04-03 Meet results → Women's 100 Meters 14.05 24th · 2nd on team ★PR SR
2025-03-28 FSU Relays 1600m 6:25.58 188th · 3rd on team 104.7 -0.042 PR SR RSR
2025-03-28 Terry Long FSU Relays - HS 1600m 6:25.58 188th · 3rd on team 104.7 -0.042 ★PR SR
2025-03-22 Meet results → Women's Long Jump 3.50m
2025-03-22 Guy Thomas Memorial Classic lj 3.50m -0.038
2025-03-22 Guy Thomas Memorial Classic 400m 1:02.45 17th · 1st on team -0.038 PR SR
2025-03-13 Meet results → Women's Long Jump 4.05m
2025-03-13 Meet results → Women's 400 Meters 1:01.59 6th · 2nd on team PR SR
2025-03-07 Edison Relays lj 4.35m -0.053
2025-03-07 Meet results → Women's Long Jump 4.35m
2025-03-07 Edison Relays 400m 1:04.22 12th · 1st on team -0.053 SR
2025-03-01 Meet results → Women's Long Jump 4.13m
2025-03-01 Loretta Purish Invitational lj 4.13m -0.047
2025-03-01 Loretta Purish Invitational 400m 1:04.69 8th · 1st on team -0.047 SR
2025-02-22 Meet results → Women's Long Jump 4.17m
2025-02-15 Dunbar Tigers Classic 400m 1:05.03 12th · 1st on team -0.038 SR
2024-12-07 IMG Academy Showcase 300m 47.2 16th · 2nd on team -0.040 ★PR SR
2024-12-07 IMG Academy Showcase 150m 22.06 19th · 2nd on team -0.040 ★PR SR

2024 TF

Fort Myers (FL) · Grade 11

Date Meet Event Result Place Rating Difficulty PR/SR Flags
2024-05-08 FHSAA 3A Region 3 400m 1:03.37 15th · 1st on team -0.048
2024-04-24 Meet results → Women's Long Jump 3.37m
2024-04-24 FHSAA 3A District 11 lj 3.37m -0.038
2024-04-24 FHSAA 3A District 11 400m 1:04.38 4th · 1st on team -0.038
2024-04-24 FHSAA 3A District 11 200m 28.68 13th · 1st on team -0.038 ★PR SR
2024-04-17 LCAC Meet lj 4.49m -0.032
2024-04-17 Meet results → Women's Long Jump 4.49m
2024-04-17 LCAC Meet 400m 1:03.19 4th · 1st on team -0.032 PR SR
2024-04-17 LCAC Meet 200m 28.71 14th · 1st on team -0.032 PR SR
2024-04-10 Dunbar Dual Meet 100m 14.72 3rd · 3rd on team -0.038 SR
2024-04-05 Meet results → Women's Long Jump 4.45m
2024-04-05 Meet results → Women's 100 Meters 14.42 47th · 2nd on team PR SR
2024-04-05 Meet results → Women's 200 Meters 29.24 24th · 1st on team ★PR SR
2024-03-23 Guy Thomas Memorial Classic 400m 1:05.9 31st · 2nd on team -0.038 PR SR
2024-03-23 Guy Thomas Memorial Classic 200m 29.13 37th · 1st on team -0.038
2024-03-01 Meet results → Women's Long Jump NM
2024-02-24 Meet results → Women's Long Jump 4.14m
2024-02-24 Dunbar Tiger Classic lj 4.14m -0.038
2024-02-24 Dunbar Tiger Classic 200m 29.09 33rd · 1st on team -0.038 PR SR

2023 TF 109.1

Fort Myers (FL) · Grade 10

Date Meet Event Result Place Rating Difficulty PR/SR Flags
2023-04-20 FHSAA 3A District 11 lj 3.93m -0.038
2023-04-20 Meet results → Women's Long Jump 3.93m
2023-04-20 FHSAA 3A District 11 100m 14.08 20th · 3rd on team -0.038 ★PR SR
2023-04-06 Meet results → Women's Long Jump 4.24m
2023-04-06 Meet results → Women's 400 Meters 1:06.55 12th · 4th on team PR SR
2023-04-01 Meet results → Girls 400m Dash Varsity 1:05.9 2nd · 1st on team ★PR SR
2023-04-01 Meet results → Women's 800 Meters 2:48.58 4th · 1st on team ★PR SR
2023-02-25 Loretta Purish Invitational 800m 2:47.33 26th · 4th on team 108.3 -0.047
2023-02-18 Dunbar Tiger Classic 800m 2:46.31 15th · 3rd on team 109.9 -0.038 PR SR RSR

2022 TF 106.1

Fort Myers (FL) · Grade 9

Date Meet Event Result Place Rating Difficulty PR/SR Flags
2022-04-09 Lee County Championship (LCAC) 400m 1:08.75 20th · 4th on team -0.038 PR SR
2022-04-02 Cypress Lake Panther Invitational 1600m 6:26.93 2nd · 1st on team 106.1 -0.032 PR SR RSR